sensor_id;sensor_type;location;lat;lon;timestamp;P1;durP1;ratioP1;P2;durP2;ratioP2
61096;SDS011;46977;50.936;6.908;2022-09-12T00:00:27;25.73;;;14.18;;
61096;SDS011;46977;50.936;6.908;2022-09-12T00:03:34;26.52;;;14.32;;
61096;SDS011;46977;50.936;6.908;2022-09-12T00:06:37;26.38;;;14.82;;
61096;SDS011;46977;50.936;6.908;2022-09-12T00:09:40;29.48;;;14.63;;
61096;SDS011;46977;50.936;6.908;2022-09-12T00:12:42;26.33;;;14.75;;
61096;SDS011;46977;50.936;6.908;2022-09-12T00:15:45;27.40;;;14.50;;
61096;SDS011;46977;50.936;6.908;2022-09-12T00:18:48;34.83;;;16.55;;
61096;SDS011;46977;50.936;6.908;2022-09-12T00:21:51;30.35;;;15.98;;
61096;SDS011;46977;50.936;6.908;2022-09-12T00:24:53;32.92;;;16.98;;
61096;SDS011;46977;50.936;6.908;2022-09-12T00:27:55;34.35;;;16.60;;
61096;SDS011;46977;50.936;6.908;2022-09-12T00:30:58;37.05;;;17.90;;
61096;SDS011;46977;50.936;6.908;2022-09-12T00:34:02;36.10;;;16.88;;
61096;SDS011;46977;50.936;6.908;2022-09-12T00:37:04;30.27;;;16.30;;
61096;SDS011;46977;50.936;6.908;2022-09-12T00:40:06;37.85;;;17.67;;
61096;SDS011;46977;50.936;6.908;2022-09-12T00:43:10;35.75;;;17.85;;
61096;SDS011;46977;50.936;6.908;2022-09-12T00:46:16;37.08;;;17.67;;
61096;SDS011;46977;50.936;6.908;2022-09-12T00:49:27;34.35;;;16.88;;
61096;SDS011;46977;50.936;6.908;2022-09-12T00:52:32;34.20;;;17.10;;
61096;SDS011;46977;50.936;6.908;2022-09-12T00:55:36;35.60;;;17.40;;
61096;SDS011;46977;50.936;6.908;2022-09-12T00:58:41;28.42;;;16.08;;
61096;SDS011;46977;50.936;6.908;2022-09-12T01:01:46;32.75;;;17.00;;
61096;SDS011;46977;50.936;6.908;2022-09-12T01:04:52;31.10;;;16.52;;
61096;SDS011;46977;50.936;6.908;2022-09-12T01:07:55;34.08;;;15.45;;
61096;SDS011;46977;50.936;6.908;2022-09-12T01:10:58;33.65;;;16.52;;
61096;SDS011;46977;50.936;6.908;2022-09-12T01:14:00;34.50;;;16.40;;
61096;SDS011;46977;50.936;6.908;2022-09-12T01:17:02;33.45;;;16.05;;
61096;SDS011;46977;50.936;6.908;2022-09-12T01:20:18;27.73;;;15.13;;
61096;SDS011;46977;50.936;6.908;2022-09-12T01:27:21;35.17;;;15.93;;
61096;SDS011;46977;50.936;6.908;2022-09-12T01:30:46;33.47;;;14.98;;
61096;SDS011;46977;50.936;6.908;2022-09-12T01:33:53;37.20;;;15.73;;
61096;SDS011;46977;50.936;6.908;2022-09-12T01:37:00;31.75;;;16.23;;
61096;SDS011;46977;50.936;6.908;2022-09-12T01:40:08;30.05;;;15.93;;
61096;SDS011;46977;50.936;6.908;2022-09-12T01:43:18;36.28;;;16.92;;
61096;SDS011;46977;50.936;6.908;2022-09-12T01:46:26;34.47;;;16.25;;
61096;SDS011;46977;50.936;6.908;2022-09-12T01:49:35;34.03;;;15.43;;
61096;SDS011;46977;50.936;6.908;2022-09-12T01:52:41;31.98;;;16.30;;
61096;SDS011;46977;50.936;6.908;2022-09-12T01:55:47;30.80;;;16.25;;
61096;SDS011;46977;50.936;6.908;2022-09-12T01:58:53;32.47;;;16.02;;
61096;SDS011;46977;50.936;6.908;2022-09-12T02:02:02;30.30;;;14.93;;
61096;SDS011;46977;50.936;6.908;2022-09-12T02:05:07;31.40;;;15.48;;
61096;SDS011;46977;50.936;6.908;2022-09-12T02:08:12;30.80;;;15.10;;
61096;SDS011;46977;50.936;6.908;2022-09-12T02:11:17;30.60;;;16.05;;
61096;SDS011;46977;50.936;6.908;2022-09-12T02:14:20;31.50;;;15.68;;
61096;SDS011;46977;50.936;6.908;2022-09-12T02:17:26;32.85;;;15.38;;
61096;SDS011;46977;50.936;6.908;2022-09-12T02:20:32;31.30;;;16.23;;
61096;SDS011;46977;50.936;6.908;2022-09-12T02:23:50;34.33;;;16.15;;
61096;SDS011;46977;50.936;6.908;2022-09-12T02:26:55;40.25;;;17.77;;
61096;SDS011;46977;50.936;6.908;2022-09-12T02:30:01;32.72;;;15.98;;
61096;SDS011;46977;50.936;6.908;2022-09-12T02:33:05;34.55;;;16.55;;
61096;SDS011;46977;50.936;6.908;2022-09-12T02:36:09;31.05;;;16.20;;
61096;SDS011;46977;50.936;6.908;2022-09-12T02:39:16;32.17;;;17.52;;
61096;SDS011;46977;50.936;6.908;2022-09-12T02:42:20;34.25;;;15.98;;
61096;SDS011;46977;50.936;6.908;2022-09-12T02:45:23;37.22;;;16.42;;
61096;SDS011;46977;50.936;6.908;2022-09-12T02:48:27;36.70;;;18.20;;
61096;SDS011;46977;50.936;6.908;2022-09-12T02:51:32;33.65;;;17.17;;
61096;SDS011;46977;50.936;6.908;2022-09-12T02:54:35;33.50;;;16.17;;
61096;SDS011;46977;50.936;6.908;2022-09-12T02:57:38;30.45;;;15.43;;
61096;SDS011;46977;50.936;6.908;2022-09-12T03:00:41;29.80;;;15.18;;
61096;SDS011;46977;50.936;6.908;2022-09-12T03:03:52;33.58;;;15.85;;
61096;SDS011;46977;50.936;6.908;2022-09-12T03:07:04;33.47;;;15.23;;
61096;SDS011;46977;50.936;6.908;2022-09-12T03:10:13;32.10;;;15.25;;
61096;SDS011;46977;50.936;6.908;2022-09-12T03:13:22;34.35;;;16.15;;
61096;SDS011;46977;50.936;6.908;2022-09-12T03:16:28;38.10;;;15.82;;
61096;SDS011;46977;50.936;6.908;2022-09-12T03:19:39;30.73;;;15.65;;
61096;SDS011;46977;50.936;6.908;2022-09-12T03:22:50;29.60;;;14.90;;
61096;SDS011;46977;50.936;6.908;2022-09-12T03:25:55;36.35;;;16.35;;
61096;SDS011;46977;50.936;6.908;2022-09-12T03:29:00;37.33;;;15.95;;
61096;SDS011;46977;50.936;6.908;2022-09-12T03:32:04;34.47;;;15.68;;
61096;SDS011;46977;50.936;6.908;2022-09-12T03:35:09;32.10;;;15.60;;
61096;SDS011;46977;50.936;6.908;2022-09-12T03:38:12;33.42;;;14.52;;
61096;SDS011;46977;50.936;6.908;2022-09-12T03:41:15;28.10;;;15.48;;
61096;SDS011;46977;50.936;6.908;2022-09-12T03:44:17;31.23;;;16.27;;
61096;SDS011;46977;50.936;6.908;2022-09-12T03:47:21;29.02;;;15.90;;
61096;SDS011;46977;50.936;6.908;2022-09-12T03:50:25;30.05;;;15.35;;
61096;SDS011;46977;50.936;6.908;2022-09-12T03:59:51;29.58;;;14.50;;
61096;SDS011;46977;50.936;6.908;2022-09-12T04:02:54;28.45;;;13.40;;
61096;SDS011;46977;50.936;6.908;2022-09-12T04:05:58;26.75;;;13.55;;
61096;SDS011;46977;50.936;6.908;2022-09-12T04:09:00;30.25;;;14.45;;
61096;SDS011;46977;50.936;6.908;2022-09-12T04:12:02;26.35;;;13.68;;
61096;SDS011;46977;50.936;6.908;2022-09-12T04:15:05;28.33;;;14.77;;
61096;SDS011;46977;50.936;6.908;2022-09-12T04:18:08;24.85;;;12.88;;
61096;SDS011;46977;50.936;6.908;2022-09-12T04:21:13;25.25;;;12.75;;
61096;SDS011;46977;50.936;6.908;2022-09-12T04:24:16;25.73;;;12.60;;
61096;SDS011;46977;50.936;6.908;2022-09-12T04:27:19;23.85;;;12.63;;
61096;SDS011;46977;50.936;6.908;2022-09-12T04:30:21;27.13;;;13.18;;
61096;SDS011;46977;50.936;6.908;2022-09-12T04:33:23;27.30;;;13.02;;
61096;SDS011;46977;50.936;6.908;2022-09-12T04:36:27;22.23;;;12.07;;
61096;SDS011;46977;50.936;6.908;2022-09-12T04:39:30;24.65;;;12.57;;
61096;SDS011;46977;50.936;6.908;2022-09-12T04:42:32;24.67;;;12.63;;
61096;SDS011;46977;50.936;6.908;2022-09-12T04:45:36;23.48;;;13.05;;
61096;SDS011;46977;50.936;6.908;2022-09-12T04:48:38;22.73;;;12.05;;
61096;SDS011;46977;50.936;6.908;2022-09-12T04:51:42;25.33;;;12.88;;
61096;SDS011;46977;50.936;6.908;2022-09-12T04:54:44;26.23;;;12.98;;
61096;SDS011;46977;50.936;6.908;2022-09-12T04:57:46;24.95;;;12.10;;
61096;SDS011;46977;50.936;6.908;2022-09-12T05:00:51;24.95;;;13.05;;
61096;SDS011;46977;50.936;6.908;2022-09-12T05:03:54;25.20;;;12.85;;
61096;SDS011;46977;50.936;6.908;2022-09-12T05:06:58;27.40;;;12.98;;
61096;SDS011;46977;50.936;6.908;2022-09-12T05:10:01;28.67;;;13.02;;
61096;SDS011;46977;50.936;6.908;2022-09-12T05:13:06;26.38;;;13.15;;
61096;SDS011;46977;50.936;6.908;2022-09-12T05:16:51;21.92;;;11.82;;
61096;SDS011;46977;50.936;6.908;2022-09-12T05:20:12;25.60;;;12.60;;
61096;SDS011;46977;50.936;6.908;2022-09-12T05:23:25;25.77;;;12.15;;
61096;SDS011;46977;50.936;6.908;2022-09-12T05:26:45;24.65;;;12.13;;
61096;SDS011;46977;50.936;6.908;2022-09-12T05:31:23;21.50;;;11.45;;
61096;SDS011;46977;50.936;6.908;2022-09-12T05:34:39;19.80;;;11.07;;
61096;SDS011;46977;50.936;6.908;2022-09-12T05:47:04;18.48;;;9.65;;
61096;SDS011;46977;50.936;6.908;2022-09-12T05:50:17;17.03;;;9.60;;
61096;SDS011;46977;50.936;6.908;2022-09-12T05:54:43;16.85;;;10.07;;
61096;SDS011;46977;50.936;6.908;2022-09-12T06:11:29;17.45;;;10.45;;
61096;SDS011;46977;50.936;6.908;2022-09-12T06:14:35;14.90;;;8.38;;
61096;SDS011;46977;50.936;6.908;2022-09-12T06:17:37;17.52;;;9.52;;
61096;SDS011;46977;50.936;6.908;2022-09-12T06:20:40;20.13;;;9.77;;
61096;SDS011;46977;50.936;6.908;2022-09-12T06:23:49;16.08;;;8.90;;
61096;SDS011;46977;50.936;6.908;2022-09-12T06:32:55;15.20;;;9.35;;
61096;SDS011;46977;50.936;6.908;2022-09-12T06:36:51;15.95;;;8.55;;
61096;SDS011;46977;50.936;6.908;2022-09-12T06:39:53;14.02;;;8.38;;
61096;SDS011;46977;50.936;6.908;2022-09-12T06:42:57;14.88;;;8.65;;
61096;SDS011;46977;50.936;6.908;2022-09-12T06:46:09;13.98;;;8.07;;
61096;SDS011;46977;50.936;6.908;2022-09-12T06:49:13;12.43;;;8.02;;
61096;SDS011;46977;50.936;6.908;2022-09-12T06:52:17;12.10;;;8.32;;
61096;SDS011;46977;50.936;6.908;2022-09-12T06:55:19;14.07;;;8.20;;
61096;SDS011;46977;50.936;6.908;2022-09-12T06:58:28;10.45;;;7.63;;
61096;SDS011;46977;50.936;6.908;2022-09-12T07:01:32;14.85;;;8.18;;
61096;SDS011;46977;50.936;6.908;2022-09-12T07:04:34;13.68;;;8.43;;
61096;SDS011;46977;50.936;6.908;2022-09-12T07:07:39;13.30;;;8.52;;
61096;SDS011;46977;50.936;6.908;2022-09-12T07:10:42;13.52;;;8.30;;
61096;SDS011;46977;50.936;6.908;2022-09-12T07:13:45;13.27;;;8.90;;
61096;SDS011;46977;50.936;6.908;2022-09-12T07:16:48;13.20;;;8.82;;
61096;SDS011;46977;50.936;6.908;2022-09-12T07:19:51;12.05;;;8.38;;
61096;SDS011;46977;50.936;6.908;2022-09-12T07:22:54;13.85;;;8.63;;
61096;SDS011;46977;50.936;6.908;2022-09-12T07:25:58;15.88;;;9.25;;
61096;SDS011;46977;50.936;6.908;2022-09-12T07:29:01;14.32;;;9.00;;
61096;SDS011;46977;50.936;6.908;2022-09-12T07:32:24;15.07;;;9.00;;
61096;SDS011;46977;50.936;6.908;2022-09-12T07:35:27;13.05;;;8.45;;
61096;SDS011;46977;50.936;6.908;2022-09-12T07:38:30;13.35;;;7.75;;
61096;SDS011;46977;50.936;6.908;2022-09-12T07:41:33;15.95;;;9.02;;
61096;SDS011;46977;50.936;6.908;2022-09-12T07:44:35;14.82;;;8.93;;
61096;SDS011;46977;50.936;6.908;2022-09-12T07:47:38;12.07;;;7.93;;
61096;SDS011;46977;50.936;6.908;2022-09-12T07:50:41;12.38;;;9.10;;
61096;SDS011;46977;50.936;6.908;2022-09-12T07:53:47;15.57;;;9.43;;
61096;SDS011;46977;50.936;6.908;2022-09-12T07:56:50;12.63;;;9.15;;
61096;SDS011;46977;50.936;6.908;2022-09-12T07:59:52;11.43;;;8.68;;
61096;SDS011;46977;50.936;6.908;2022-09-12T08:02:55;15.30;;;8.70;;
61096;SDS011;46977;50.936;6.908;2022-09-12T08:06:02;16.00;;;9.77;;
61096;SDS011;46977;50.936;6.908;2022-09-12T08:09:07;13.00;;;8.85;;
61096;SDS011;46977;50.936;6.908;2022-09-12T08:12:10;14.80;;;8.93;;
61096;SDS011;46977;50.936;6.908;2022-09-12T08:15:13;14.23;;;9.38;;
61096;SDS011;46977;50.936;6.908;2022-09-12T08:18:16;13.75;;;9.75;;
61096;SDS011;46977;50.936;6.908;2022-09-12T08:21:20;17.80;;;9.15;;
61096;SDS011;46977;50.936;6.908;2022-09-12T08:24:27;14.88;;;9.45;;
61096;SDS011;46977;50.936;6.908;2022-09-12T08:27:30;13.98;;;9.00;;
61096;SDS011;46977;50.936;6.908;2022-09-12T08:30:34;13.85;;;8.90;;
61096;SDS011;46977;50.936;6.908;2022-09-12T08:33:38;11.65;;;8.07;;
61096;SDS011;46977;50.936;6.908;2022-09-12T08:36:42;14.80;;;9.63;;
61096;SDS011;46977;50.936;6.908;2022-09-12T08:39:46;14.30;;;8.48;;
61096;SDS011;46977;50.936;6.908;2022-09-12T08:42:51;13.98;;;8.65;;
61096;SDS011;46977;50.936;6.908;2022-09-12T08:45:57;14.82;;;9.23;;
61096;SDS011;46977;50.936;6.908;2022-09-12T08:49:04;13.45;;;8.82;;
61096;SDS011;46977;50.936;6.908;2022-09-12T08:52:11;15.85;;;10.07;;
61096;SDS011;46977;50.936;6.908;2022-09-12T08:55:24;11.18;;;8.20;;
61096;SDS011;46977;50.936;6.908;2022-09-12T08:58:35;12.45;;;8.43;;
61096;SDS011;46977;50.936;6.908;2022-09-12T09:01:41;11.55;;;8.50;;
61096;SDS011;46977;50.936;6.908;2022-09-12T09:04:46;12.27;;;8.63;;
61096;SDS011;46977;50.936;6.908;2022-09-12T09:07:56;10.15;;;7.88;;
61096;SDS011;46977;50.936;6.908;2022-09-12T09:11:09;11.50;;;9.10;;
61096;SDS011;46977;50.936;6.908;2022-09-12T09:14:30;12.07;;;8.80;;
61096;SDS011;46977;50.936;6.908;2022-09-12T09:17:52;12.30;;;8.63;;
61096;SDS011;46977;50.936;6.908;2022-09-12T09:20:56;10.38;;;8.00;;
61096;SDS011;46977;50.936;6.908;2022-09-12T09:24:04;9.23;;;7.10;;
61096;SDS011;46977;50.936;6.908;2022-09-12T09:27:10;10.27;;;7.35;;
61096;SDS011;46977;50.936;6.908;2022-09-12T09:30:35;9.95;;;6.60;;
61096;SDS011;46977;50.936;6.908;2022-09-12T09:33:38;10.40;;;7.45;;
61096;SDS011;46977;50.936;6.908;2022-09-12T09:36:45;9.20;;;6.75;;
61096;SDS011;46977;50.936;6.908;2022-09-12T09:39:53;8.23;;;6.47;;
61096;SDS011;46977;50.936;6.908;2022-09-12T09:43:02;9.70;;;7.47;;
61096;SDS011;46977;50.936;6.908;2022-09-12T09:46:09;8.35;;;6.00;;
61096;SDS011;46977;50.936;6.908;2022-09-12T09:49:15;8.75;;;6.90;;
61096;SDS011;46977;50.936;6.908;2022-09-12T09:52:19;10.40;;;6.35;;
61096;SDS011;46977;50.936;6.908;2022-09-12T09:55:28;9.43;;;6.63;;
61096;SDS011;46977;50.936;6.908;2022-09-12T09:58:37;7.18;;;6.15;;
61096;SDS011;46977;50.936;6.908;2022-09-12T10:01:45;9.07;;;5.95;;
61096;SDS011;46977;50.936;6.908;2022-09-12T10:04:51;9.98;;;5.70;;
61096;SDS011;46977;50.936;6.908;2022-09-12T10:07:56;6.78;;;5.13;;
61096;SDS011;46977;50.936;6.908;2022-09-12T10:11:00;7.32;;;5.55;;
61096;SDS011;46977;50.936;6.908;2022-09-12T10:14:20;7.75;;;4.95;;
61096;SDS011;46977;50.936;6.908;2022-09-12T10:17:38;5.03;;;4.53;;
61096;SDS011;46977;50.936;6.908;2022-09-12T10:20:43;5.15;;;4.65;;
61096;SDS011;46977;50.936;6.908;2022-09-12T10:23:46;5.65;;;4.88;;
61096;SDS011;46977;50.936;6.908;2022-09-12T10:26:53;6.03;;;4.57;;
61096;SDS011;46977;50.936;6.908;2022-09-12T10:30:01;5.93;;;5.32;;
61096;SDS011;46977;50.936;6.908;2022-09-12T10:33:06;8.63;;;4.45;;
61096;SDS011;46977;50.936;6.908;2022-09-12T10:36:09;4.75;;;4.35;;
61096;SDS011;46977;50.936;6.908;2022-09-12T10:39:14;5.15;;;3.60;;
61096;SDS011;46977;50.936;6.908;2022-09-12T10:45:48;4.95;;;3.22;;
61096;SDS011;46977;50.936;6.908;2022-09-12T10:48:50;4.80;;;2.95;;
61096;SDS011;46977;50.936;6.908;2022-09-12T10:51:54;2.90;;;2.70;;
61096;SDS011;46977;50.936;6.908;2022-09-12T10:54:57;3.67;;;3.33;;
61096;SDS011;46977;50.936;6.908;2022-09-12T10:58:03;2.97;;;2.67;;
61096;SDS011;46977;50.936;6.908;2022-09-12T11:01:13;3.67;;;2.65;;
61096;SDS011;46977;50.936;6.908;2022-09-12T11:04:38;3.30;;;2.97;;
61096;SDS011;46977;50.936;6.908;2022-09-12T11:07:47;4.10;;;2.65;;
61096;SDS011;46977;50.936;6.908;2022-09-12T11:10:53;2.80;;;2.55;;
61096;SDS011;46977;50.936;6.908;2022-09-12T11:14:02;2.65;;;2.33;;
61096;SDS011;46977;50.936;6.908;2022-09-12T11:17:19;4.85;;;2.90;;
61096;SDS011;46977;50.936;6.908;2022-09-12T11:20:31;3.13;;;2.83;;
61096;SDS011;46977;50.936;6.908;2022-09-12T11:23:43;2.90;;;2.15;;
61096;SDS011;46977;50.936;6.908;2022-09-12T11:26:59;4.93;;;2.47;;
61096;SDS011;46977;50.936;6.908;2022-09-12T11:30:08;2.63;;;2.40;;
61096;SDS011;46977;50.936;6.908;2022-09-12T11:33:23;2.63;;;2.17;;
61096;SDS011;46977;50.936;6.908;2022-09-12T11:36:32;2.53;;;2.10;;
61096;SDS011;46977;50.936;6.908;2022-09-12T11:39:37;2.25;;;1.90;;
61096;SDS011;46977;50.936;6.908;2022-09-12T11:42:40;2.45;;;1.90;;
61096;SDS011;46977;50.936;6.908;2022-09-12T11:45:43;3.38;;;2.10;;
61096;SDS011;46977;50.936;6.908;2022-09-12T11:48:50;2.05;;;1.85;;
61096;SDS011;46977;50.936;6.908;2022-09-12T11:51:57;2.60;;;2.10;;
61096;SDS011;46977;50.936;6.908;2022-09-12T11:55:01;3.35;;;2.00;;
61096;SDS011;46977;50.936;6.908;2022-09-12T11:58:07;1.85;;;1.70;;
61096;SDS011;46977;50.936;6.908;2022-09-12T12:01:11;2.38;;;2.00;;
61096;SDS011;46977;50.936;6.908;2022-09-12T12:04:19;2.53;;;1.77;;
61096;SDS011;46977;50.936;6.908;2022-09-12T12:07:22;2.10;;;1.90;;
61096;SDS011;46977;50.936;6.908;2022-09-12T12:10:27;2.70;;;1.90;;
61096;SDS011;46977;50.936;6.908;2022-09-12T12:13:33;2.20;;;2.10;;
61096;SDS011;46977;50.936;6.908;2022-09-12T12:16:36;3.20;;;2.67;;
61096;SDS011;46977;50.936;6.908;2022-09-12T12:19:41;2.83;;;2.22;;
61096;SDS011;46977;50.936;6.908;2022-09-12T12:22:49;4.10;;;2.67;;
61096;SDS011;46977;50.936;6.908;2022-09-12T12:25:53;4.07;;;2.78;;
61096;SDS011;46977;50.936;6.908;2022-09-12T12:28:59;4.82;;;2.40;;
61096;SDS011;46977;50.936;6.908;2022-09-12T12:32:23;3.00;;;2.75;;
61096;SDS011;46977;50.936;6.908;2022-09-12T12:35:40;3.30;;;2.70;;
61096;SDS011;46977;50.936;6.908;2022-09-12T12:38:43;2.47;;;2.05;;
61096;SDS011;46977;50.936;6.908;2022-09-12T12:41:45;4.95;;;2.80;;
61096;SDS011;46977;50.936;6.908;2022-09-12T12:44:48;2.83;;;2.58;;
61096;SDS011;46977;50.936;6.908;2022-09-12T12:47:52;3.40;;;2.60;;
61096;SDS011;46977;50.936;6.908;2022-09-12T12:57:58;2.97;;;2.78;;
61096;SDS011;46977;50.936;6.908;2022-09-12T13:01:03;3.42;;;2.40;;
61096;SDS011;46977;50.936;6.908;2022-09-12T13:04:11;3.22;;;1.98;;
61096;SDS011;46977;50.936;6.908;2022-09-12T13:07:20;2.33;;;2.13;;
61096;SDS011;46977;50.936;6.908;2022-09-12T13:10:28;3.90;;;2.03;;
61096;SDS011;46977;50.936;6.908;2022-09-12T13:13:32;2.65;;;2.42;;
61096;SDS011;46977;50.936;6.908;2022-09-12T13:16:50;2.90;;;2.20;;
61096;SDS011;46977;50.936;6.908;2022-09-12T13:20:26;3.08;;;2.28;;
61096;SDS011;46977;50.936;6.908;2022-09-12T13:23:31;2.60;;;1.90;;
61096;SDS011;46977;50.936;6.908;2022-09-12T13:26:39;2.05;;;1.95;;
61096;SDS011;46977;50.936;6.908;2022-09-12T13:29:42;2.50;;;2.30;;
61096;SDS011;46977;50.936;6.908;2022-09-12T13:32:45;2.33;;;2.13;;
61096;SDS011;46977;50.936;6.908;2022-09-12T13:39:25;3.63;;;2.28;;
61096;SDS011;46977;50.936;6.908;2022-09-12T13:42:36;2.65;;;2.30;;
61096;SDS011;46977;50.936;6.908;2022-09-12T13:45:40;3.00;;;2.30;;
61096;SDS011;46977;50.936;6.908;2022-09-12T13:48:44;2.97;;;2.45;;
61096;SDS011;46977;50.936;6.908;2022-09-12T13:51:55;3.17;;;2.25;;
61096;SDS011;46977;50.936;6.908;2022-09-12T13:55:00;2.55;;;2.35;;
61096;SDS011;46977;50.936;6.908;2022-09-12T13:58:15;2.67;;;1.90;;
61096;SDS011;46977;50.936;6.908;2022-09-12T14:01:18;2.53;;;2.15;;
61096;SDS011;46977;50.936;6.908;2022-09-12T14:04:25;2.60;;;2.38;;
61096;SDS011;46977;50.936;6.908;2022-09-12T14:07:48;3.67;;;3.33;;
61096;SDS011;46977;50.936;6.908;2022-09-12T14:10:56;5.38;;;2.25;;
61096;SDS011;46977;50.936;6.908;2022-09-12T14:14:03;2.15;;;1.98;;
61096;SDS011;46977;50.936;6.908;2022-09-12T14:17:16;2.53;;;2.33;;
61096;SDS011;46977;50.936;6.908;2022-09-12T14:20:24;2.40;;;2.20;;
61096;SDS011;46977;50.936;6.908;2022-09-12T14:23:27;2.33;;;2.03;;
61096;SDS011;46977;50.936;6.908;2022-09-12T14:26:32;2.60;;;2.30;;
61096;SDS011;46977;50.936;6.908;2022-09-12T14:29:37;4.22;;;2.20;;
61096;SDS011;46977;50.936;6.908;2022-09-12T14:33:00;3.10;;;2.25;;
61096;SDS011;46977;50.936;6.908;2022-09-12T14:36:08;3.65;;;2.58;;
61096;SDS011;46977;50.936;6.908;2022-09-12T14:39:21;2.53;;;2.20;;
61096;SDS011;46977;50.936;6.908;2022-09-12T14:42:26;3.00;;;2.67;;
61096;SDS011;46977;50.936;6.908;2022-09-12T14:45:34;2.88;;;2.25;;
61096;SDS011;46977;50.936;6.908;2022-09-12T14:48:36;4.25;;;2.33;;
61096;SDS011;46977;50.936;6.908;2022-09-12T14:51:47;3.10;;;2.55;;
61096;SDS011;46977;50.936;6.908;2022-09-12T14:54:56;4.30;;;2.67;;
61096;SDS011;46977;50.936;6.908;2022-09-12T14:58:10;2.60;;;2.40;;
61096;SDS011;46977;50.936;6.908;2022-09-12T15:01:22;2.40;;;2.17;;
61096;SDS011;46977;50.936;6.908;2022-09-12T15:07:44;2.30;;;2.10;;
61096;SDS011;46977;50.936;6.908;2022-09-12T15:10:56;4.72;;;2.95;;
61096;SDS011;46977;50.936;6.908;2022-09-12T15:14:05;4.53;;;2.88;;
61096;SDS011;46977;50.936;6.908;2022-09-12T15:17:09;2.95;;;2.75;;
61096;SDS011;46977;50.936;6.908;2022-09-12T15:20:12;2.97;;;2.40;;
61096;SDS011;46977;50.936;6.908;2022-09-12T15:23:17;2.25;;;2.05;;
61096;SDS011;46977;50.936;6.908;2022-09-12T15:26:22;3.67;;;2.17;;
61096;SDS011;46977;50.936;6.908;2022-09-12T15:29:29;2.78;;;2.10;;
61096;SDS011;46977;50.936;6.908;2022-09-12T15:32:33;3.10;;;2.25;;
61096;SDS011;46977;50.936;6.908;2022-09-12T15:35:35;2.53;;;2.33;;
61096;SDS011;46977;50.936;6.908;2022-09-12T15:38:38;3.85;;;2.10;;
61096;SDS011;46977;50.936;6.908;2022-09-12T15:41:40;3.05;;;2.28;;
61096;SDS011;46977;50.936;6.908;2022-09-12T15:44:42;2.30;;;2.05;;
61096;SDS011;46977;50.936;6.908;2022-09-12T15:47:46;2.50;;;2.30;;
61096;SDS011;46977;50.936;6.908;2022-09-12T15:50:48;3.80;;;2.33;;
61096;SDS011;46977;50.936;6.908;2022-09-12T15:53:51;2.60;;;2.40;;
61096;SDS011;46977;50.936;6.908;2022-09-12T15:56:55;4.40;;;2.05;;
61096;SDS011;46977;50.936;6.908;2022-09-12T15:59:58;2.17;;;1.98;;
61096;SDS011;46977;50.936;6.908;2022-09-12T16:03:16;3.97;;;2.00;;
61096;SDS011;46977;50.936;6.908;2022-09-12T16:06:22;1.92;;;1.83;;
61096;SDS011;46977;50.936;6.908;2022-09-12T16:09:25;2.22;;;1.92;;
61096;SDS011;46977;50.936;6.908;2022-09-12T16:12:27;3.30;;;1.88;;
61096;SDS011;46977;50.936;6.908;2022-09-12T16:15:32;2.38;;;2.00;;
61096;SDS011;46977;50.936;6.908;2022-09-12T16:18:50;2.13;;;1.70;;
61096;SDS011;46977;50.936;6.908;2022-09-12T16:22:13;4.05;;;1.95;;
61096;SDS011;46977;50.936;6.908;2022-09-12T16:25:29;2.03;;;1.83;;
61096;SDS011;46977;50.936;6.908;2022-09-12T16:28:54;1.95;;;1.85;;
61096;SDS011;46977;50.936;6.908;2022-09-12T16:32:10;2.25;;;2.00;;
61096;SDS011;46977;50.936;6.908;2022-09-12T16:37:11;1.88;;;1.77;;
61096;SDS011;46977;50.936;6.908;2022-09-12T16:40:37;2.55;;;2.08;;
61096;SDS011;46977;50.936;6.908;2022-09-12T16:45:53;3.03;;;1.98;;
61096;SDS011;46977;50.936;6.908;2022-09-12T16:53:42;2.05;;;1.50;;
61096;SDS011;46977;50.936;6.908;2022-09-12T17:01:04;2.97;;;1.40;;
61096;SDS011;46977;50.936;6.908;2022-09-12T17:10:20;3.15;;;1.80;;
61096;SDS011;46977;50.936;6.908;2022-09-12T17:12:23;3.72;;;1.98;;
61096;SDS011;46977;50.936;6.908;2022-09-12T17:15:42;2.17;;;1.98;;
61096;SDS011;46977;50.936;6.908;2022-09-12T17:18:54;2.40;;;2.17;;
61096;SDS011;46977;50.936;6.908;2022-09-12T17:22:12;2.55;;;1.98;;
61096;SDS011;46977;50.936;6.908;2022-09-12T17:25:24;5.70;;;2.53;;
61096;SDS011;46977;50.936;6.908;2022-09-12T17:28:30;4.18;;;2.42;;
61096;SDS011;46977;50.936;6.908;2022-09-12T17:31:33;2.90;;;2.70;;
61096;SDS011;46977;50.936;6.908;2022-09-12T17:34:36;3.10;;;2.38;;
61096;SDS011;46977;50.936;6.908;2022-09-12T17:37:39;2.63;;;2.42;;
61096;SDS011;46977;50.936;6.908;2022-09-12T17:40:43;4.82;;;2.58;;
61096;SDS011;46977;50.936;6.908;2022-09-12T17:44:04;4.13;;;2.75;;
61096;SDS011;46977;50.936;6.908;2022-09-12T17:47:08;4.25;;;2.17;;
61096;SDS011;46977;50.936;6.908;2022-09-12T17:50:11;2.35;;;2.15;;
61096;SDS011;46977;50.936;6.908;2022-09-12T17:53:32;3.67;;;2.15;;
61096;SDS011;46977;50.936;6.908;2022-09-12T17:56:35;3.20;;;2.08;;
61096;SDS011;46977;50.936;6.908;2022-09-12T17:59:40;4.30;;;2.03;;
61096;SDS011;46977;50.936;6.908;2022-09-12T18:02:43;1.90;;;1.80;;
61096;SDS011;46977;50.936;6.908;2022-09-12T18:05:48;3.08;;;2.05;;
61096;SDS011;46977;50.936;6.908;2022-09-12T18:08:54;3.97;;;1.67;;
61096;SDS011;46977;50.936;6.908;2022-09-12T18:11:57;5.65;;;1.85;;
61096;SDS011;46977;50.936;6.908;2022-09-12T18:15:01;2.78;;;1.70;;
61096;SDS011;46977;50.936;6.908;2022-09-12T18:18:04;2.47;;;1.80;;
61096;SDS011;46977;50.936;6.908;2022-09-12T18:21:07;2.20;;;1.40;;
61096;SDS011;46977;50.936;6.908;2022-09-12T18:24:12;1.83;;;1.73;;
61096;SDS011;46977;50.936;6.908;2022-09-12T18:27:14;2.22;;;1.80;;
61096;SDS011;46977;50.936;6.908;2022-09-12T18:30:19;2.30;;;1.77;;
61096;SDS011;46977;50.936;6.908;2022-09-12T18:33:24;2.70;;;1.63;;
61096;SDS011;46977;50.936;6.908;2022-09-12T18:36:27;2.85;;;1.70;;
61096;SDS011;46977;50.936;6.908;2022-09-12T18:39:30;7.15;;;2.42;;
61096;SDS011;46977;50.936;6.908;2022-09-12T18:42:33;2.05;;;1.50;;
61096;SDS011;46977;50.936;6.908;2022-09-12T18:45:37;1.90;;;1.40;;
61096;SDS011;46977;50.936;6.908;2022-09-12T18:48:39;2.63;;;1.70;;
61096;SDS011;46977;50.936;6.908;2022-09-12T18:51:42;3.42;;;1.48;;
61096;SDS011;46977;50.936;6.908;2022-09-12T18:54:45;4.43;;;1.50;;
61096;SDS011;46977;50.936;6.908;2022-09-12T18:57:48;2.03;;;1.30;;
61096;SDS011;46977;50.936;6.908;2022-09-12T19:00:53;2.72;;;1.92;;
61096;SDS011;46977;50.936;6.908;2022-09-12T19:03:56;3.15;;;1.48;;
61096;SDS011;46977;50.936;6.908;2022-09-12T19:07:02;2.92;;;1.83;;
61096;SDS011;46977;50.936;6.908;2022-09-12T19:10:05;5.25;;;1.88;;
61096;SDS011;46977;50.936;6.908;2022-09-12T19:13:12;3.05;;;1.65;;
61096;SDS011;46977;50.936;6.908;2022-09-12T19:16:16;3.13;;;1.88;;
61096;SDS011;46977;50.936;6.908;2022-09-12T19:19:20;4.88;;;1.80;;
61096;SDS011;46977;50.936;6.908;2022-09-12T19:22:22;3.83;;;1.95;;
61096;SDS011;46977;50.936;6.908;2022-09-12T19:25:24;4.75;;;1.85;;
61096;SDS011;46977;50.936;6.908;2022-09-12T19:28:27;3.35;;;1.85;;
61096;SDS011;46977;50.936;6.908;2022-09-12T19:31:31;4.20;;;2.00;;
61096;SDS011;46977;50.936;6.908;2022-09-12T19:34:34;2.88;;;2.00;;
61096;SDS011;46977;50.936;6.908;2022-09-12T19:37:36;2.63;;;1.50;;
61096;SDS011;46977;50.936;6.908;2022-09-12T19:40:39;2.17;;;1.95;;
61096;SDS011;46977;50.936;6.908;2022-09-12T19:43:41;2.45;;;2.00;;
61096;SDS011;46977;50.936;6.908;2022-09-12T19:46:45;3.92;;;2.38;;
61096;SDS011;46977;50.936;6.908;2022-09-12T19:49:47;4.75;;;2.10;;